Time;durP1;ratioP1;P1;durP2;ratioP2;P2;SDS_P1;SDS_P2;PMS_P1;PMS_P2;Temp;Humidity;BMP_temperature;BMP_pressure;BME280_temperature;BME280_humidity;BME280_pressure;Samples;Min_cycle;Max_cycle;Signal;HPM_P1;HPM_P2
2023/04/01 00:02:08;;;;;;;4.10;2.90;;;;;;;8.87;76.51;98465.98;130442;1254;114826;-65
2023/04/01 00:05:10;;;;;;;5.60;3.00;;;;;;;8.88;76.56;98468.02;130800;1253;114789;-70
2023/04/01 00:08:13;;;;;;;7.90;4.20;;;;;;;8.89;76.51;98468.32;130860;1251;115379;-64
2023/04/01 00:11:15;;;;;;;4.30;3.00;;;;;;;8.90;76.72;98468.59;130464;1254;115382;-70
2023/04/01 00:14:17;;;;;;;9.50;4.00;;;;;;;8.92;76.70;98467.00;130420;1254;114823;-64
2023/04/01 00:17:20;;;;;;;9.50;4.80;;;;;;;8.94;76.74;98467.79;130364;1254;115080;-69
2023/04/01 00:20:22;;;;;;;11.50;5.10;;;;;;;8.96;76.74;98465.49;130406;1263;115416;-64
2023/04/01 00:23:24;;;;;;;10.80;5.50;;;;;;;8.98;76.83;98465.73;130449;1265;114657;-66
2023/04/01 00:26:26;;;;;;;8.80;4.90;;;;;;;9.00;77.11;98465.37;130539;1253;115520;-68
2023/04/01 00:29:30;;;;;;;9.10;5.20;;;;;;;9.02;76.75;98462.19;130519;1254;115093;-70
2023/04/01 00:32:33;;;;;;;10.50;5.40;;;;;;;9.04;76.96;98462.02;130491;1254;115214;-69
2023/04/01 00:35:35;;;;;;;9.60;5.10;;;;;;;9.06;77.11;98464.03;130498;1254;114820;-70
2023/04/01 00:38:38;;;;;;;10.10;6.30;;;;;;;9.08;76.91;98463.55;130463;1253;115153;-69
2023/04/01 00:41:41;;;;;;;9.30;6.30;;;;;;;9.09;76.82;98467.22;130444;1254;115470;-70
2023/04/01 00:44:47;;;;;;;8.70;6.40;;;;;;;9.09;77.04;98467.03;130351;1250;114717;-70
2023/04/01 00:47:50;;;;;;;8.60;6.30;;;;;;;9.08;76.91;98465.71;130210;1251;114799;-69
2023/04/01 00:50:55;;;;;;;12.40;6.40;;;;;;;9.06;76.87;98463.14;130469;1254;114814;-68
2023/04/01 00:54:01;;;;;;;11.70;6.70;;;;;;;9.06;77.07;98459.78;130449;1254;128827;-69
2023/04/01 00:57:25;;;;;;;11.50;6.80;;;;;;;9.06;77.15;98461.42;131672;1250;115169;-67
2023/04/01 01:00:28;;;;;;;13.00;7.20;;;;;;;9.05;77.10;98460.89;130562;1275;114745;-66
2023/04/01 01:03:30;;;;;;;11.40;6.50;;;;;;;9.07;77.15;98465.42;130324;1275;115856;-66
2023/04/01 01:07:15;;;;;;;10.20;6.20;;;;;;;9.08;77.05;98464.64;130358;1272;114718;-66
2023/04/01 01:10:19;;;;;;;11.60;6.40;;;;;;;9.10;77.02;98467.19;130009;1262;129080;-66
2023/04/01 01:13:34;;;;;;;9.70;6.10;;;;;;;9.11;77.10;98465.95;129796;1260;114874;-66
2023/04/01 01:16:42;;;;;;;7.60;6.50;;;;;;;9.13;77.33;98466.36;129688;1263;115565;-66
2023/04/01 01:20:03;;;;;;;8.90;6.60;;;;;;;9.16;77.32;98469.38;129864;1278;114757;-67
2023/04/01 01:23:20;;;;;;;8.50;6.60;;;;;;;9.18;77.35;98466.01;129915;1262;114840;-66
2023/04/01 01:26:46;;;;;;;10.50;7.40;;;;;;;9.19;77.37;98462.05;129951;1264;128895;-66
2023/04/01 01:30:46;;;;;;;11.40;8.00;;;;;;;9.21;77.43;98465.08;129973;1263;114753;-66
2023/04/01 01:34:19;;;;;;;11.00;7.40;;;;;;;9.22;77.47;98462.50;129273;1271;114934;-69
2023/04/01 01:37:24;;;;;;;10.40;7.90;;;;;;;9.22;77.65;98464.80;129357;1273;114837;-67
2023/04/01 01:40:27;;;;;;;12.70;8.40;;;;;;;9.24;77.68;98461.33;129449;1278;114810;-72
2023/04/01 01:43:41;;;;;;;13.60;7.70;;;;;;;9.23;77.60;98462.82;129345;1277;127597;-70
2023/04/01 01:46:44;;;;;;;10.20;8.10;;;;;;;9.22;77.67;98460.36;129694;1262;115250;-72
2023/04/01 01:49:47;;;;;;;14.90;8.40;;;;;;;9.22;77.75;98458.41;129972;1260;114822;-72
2023/04/01 01:52:49;;;;;;;11.60;9.00;;;;;;;9.24;77.76;98455.81;130118;1271;114960;-67
2023/04/01 01:55:52;;;;;;;13.30;9.00;;;;;;;9.24;77.79;98454.17;130125;1263;115378;-73
2023/04/01 01:59:09;;;;;;;11.00;9.10;;;;;;;9.24;77.70;98453.83;130093;1262;115817;-71
2023/04/01 02:02:13;;;;;;;12.30;9.40;;;;;;;9.25;77.93;98447.52;129732;1274;115345;-72
2023/04/01 02:05:19;;;;;;;12.30;9.30;;;;;;;9.25;77.84;98444.88;130516;1254;114798;-66
2023/04/01 02:08:28;;;;;;;13.30;9.00;;;;;;;9.25;77.87;98443.06;130665;1267;114698;-72
2023/04/01 02:11:56;;;;;;;13.60;9.10;;;;;;;9.26;77.77;98443.91;130661;1259;114753;-68
2023/04/01 02:15:05;;;;;;;12.10;7.90;;;;;;;9.25;77.89;98445.75;130653;1275;128968;-69
2023/04/01 02:18:08;;;;;;;11.50;8.00;;;;;;;9.25;77.90;98446.09;130636;1266;115488;-68
2023/04/01 02:21:12;;;;;;;12.60;8.60;;;;;;;9.26;77.77;98444.77;130480;1262;114861;-68
2023/04/01 02:24:15;;;;;;;11.80;7.40;;;;;;;9.27;78.04;98438.95;130765;1257;115041;-67
2023/04/01 02:27:20;;;;;;;9.10;6.60;;;;;;;9.29;78.07;98437.96;130913;1256;114677;-69
2023/04/01 02:30:24;;;;;;;9.30;6.90;;;;;;;9.31;77.97;98434.81;131077;1256;127057;-70
2023/04/01 02:33:27;;;;;;;9.70;6.90;;;;;;;9.31;78.00;98429.98;130424;1257;114932;-66
2023/04/01 02:36:30;;;;;;;11.70;7.80;;;;;;;9.33;78.18;98433.09;130583;1258;114756;-66
2023/04/01 02:39:32;;;;;;;8.90;6.50;;;;;;;9.34;78.03;98432.63;130557;1256;114743;-66
2023/04/01 02:42:34;;;;;;;13.70;7.00;;;;;;;9.34;78.10;98432.07;130466;1255;115144;-69
2023/04/01 02:45:37;;;;;;;9.00;5.90;;;;;;;9.35;78.35;98432.70;130462;1254;115671;-67
2023/04/01 02:48:39;;;;;;;7.50;6.00;;;;;;;9.35;78.21;98430.02;130369;1275;128791;-67
2023/04/01 02:51:41;;;;;;;7.30;5.60;;;;;;;9.36;78.17;98433.55;130357;1256;115134;-67
2023/04/01 02:54:43;;;;;;;9.30;6.40;;;;;;;9.36;78.13;98438.68;130502;1275;114706;-67
2023/04/01 02:57:45;;;;;;;6.70;5.80;;;;;;;9.37;78.15;98440.58;130283;1267;114823;-67
2023/04/01 03:00:47;;;;;;;9.90;5.50;;;;;;;9.37;77.98;98441.08;130258;1257;114647;-67
2023/04/01 03:03:50;;;;;;;9.80;5.80;;;;;;;9.36;78.16;98439.74;130342;1266;114676;-68
2023/04/01 03:06:52;;;;;;;11.70;5.80;;;;;;;9.36;78.20;98444.21;130349;1275;114791;-68
2023/04/01 03:09:54;;;;;;;9.70;5.70;;;;;;;9.37;78.12;98449.85;130262;1275;114770;-67
2023/04/01 03:12:56;;;;;;;7.20;4.80;;;;;;;9.36;78.03;98450.80;130476;1266;114692;-68
2023/04/01 03:15:58;;;;;;;6.90;4.20;;;;;;;9.37;78.07;98450.77;130478;1254;115423;-68
2023/04/01 03:19:02;;;;;;;6.00;3.50;;;;;;;9.36;77.97;98448.70;130436;1260;115406;-67
2023/04/01 03:22:04;;;;;;;6.70;3.70;;;;;;;9.34;77.89;98452.73;130451;1267;114628;-66
2023/04/01 03:25:07;;;;;;;8.70;3.20;;;;;;;9.35;78.13;98451.59;130515;1275;114727;-67
2023/04/01 03:28:10;;;;;;;6.50;3.10;;;;;;;9.35;78.02;98454.96;130471;1273;114749;-67
2023/04/01 03:31:12;;;;;;;7.30;3.70;;;;;;;9.35;77.93;98450.87;130406;1275;114968;-67
2023/04/01 03:34:14;;;;;;;6.00;3.40;;;;;;;9.36;77.95;98457.89;130262;1275;115183;-67
2023/04/01 03:37:17;;;;;;;5.30;3.10;;;;;;;9.39;78.09;98457.20;130299;1257;114794;-67
2023/04/01 03:40:20;;;;;;;9.80;4.40;;;;;;;9.41;78.29;98456.88;130301;1275;114737;-69
2023/04/01 03:43:22;;;;;;;7.10;3.20;;;;;;;9.43;78.06;98457.98;130484;1272;114731;-67
2023/04/01 03:46:25;;;;;;;6.30;3.20;;;;;;;9.43;78.14;98455.59;130292;1260;114683;-67
2023/04/01 03:49:27;;;;;;;6.10;3.10;;;;;;;9.45;78.22;98457.80;130266;1275;127710;-67
2023/04/01 03:52:29;;;;;;;5.40;3.70;;;;;;;9.47;78.29;98461.98;130381;1257;115019;-70
2023/04/01 03:55:31;;;;;;;8.50;3.80;;;;;;;9.48;78.30;98464.92;130392;1256;114760;-67
2023/04/01 03:58:34;;;;;;;10.90;5.20;;;;;;;9.47;78.26;98463.90;130221;1254;114706;-67
2023/04/01 04:01:36;;;;;;;5.70;3.90;;;;;;;9.47;78.53;98464.60;130319;1256;114715;-66
2023/04/01 04:04:38;;;;;;;7.00;4.30;;;;;;;9.46;78.65;98469.86;130282;1268;114825;-66
2023/04/01 04:07:40;;;;;;;5.90;3.40;;;;;;;9.46;78.62;98472.20;130312;1267;114814;-66
2023/04/01 04:10:43;;;;;;;5.60;3.50;;;;;;;9.44;78.51;98472.45;130214;1264;128561;-65
2023/04/01 04:13:45;;;;;;;4.00;3.40;;;;;;;9.44;78.80;98473.40;130303;1258;114737;-66
2023/04/01 04:16:47;;;;;;;6.00;3.60;;;;;;;9.42;78.64;98476.53;130349;1257;114866;-65
2023/04/01 04:19:50;;;;;;;6.70;3.40;;;;;;;9.42;78.98;98479.19;130289;1275;115061;-65
2023/04/01 04:22:52;;;;;;;4.30;3.50;;;;;;;9.42;78.97;98478.84;130236;1267;114791;-65
2023/04/01 04:25:59;;;;;;;7.10;4.00;;;;;;;9.41;78.88;98481.45;130381;1257;114718;-66
2023/04/01 04:29:02;;;;;;;7.00;3.70;;;;;;;9.38;79.04;98483.27;130342;1257;128999;-66
2023/04/01 04:32:05;;;;;;;4.70;3.20;;;;;;;9.37;78.89;98484.06;130254;1267;114639;-67
2023/04/01 04:35:08;;;;;;;6.40;3.90;;;;;;;9.35;79.09;98484.71;130313;1256;114830;-67
2023/04/01 04:38:10;;;;;;;6.00;4.00;;;;;;;9.34;79.16;98483.22;130499;1275;114778;-65
2023/04/01 04:41:14;;;;;;;3.90;3.20;;;;;;;9.33;79.20;98479.73;130577;1275;114749;-65
2023/04/01 04:44:16;;;;;;;5.20;3.60;;;;;;;9.31;79.33;98484.34;130408;1259;115103;-65
2023/04/01 04:47:18;;;;;;;4.60;3.10;;;;;;;9.31;79.56;98482.02;130234;1258;115296;-65
2023/04/01 04:50:20;;;;;;;4.40;3.20;;;;;;;9.32;79.57;98487.13;130325;1258;114718;-67
2023/04/01 04:53:22;;;;;;;7.20;4.00;;;;;;;9.32;79.52;98487.27;130452;1258;115142;-69
2023/04/01 04:56:25;;;;;;;4.20;3.30;;;;;;;9.34;79.73;98488.77;130319;1257;114801;-67
2023/04/01 04:59:27;;;;;;;5.40;3.70;;;;;;;9.34;79.70;98486.73;130459;1266;115067;-66
2023/04/01 05:02:29;;;;;;;5.20;3.60;;;;;;;9.36;79.81;98489.85;130628;1266;114715;-67
2023/04/01 05:05:31;;;;;;;10.50;3.70;;;;;;;9.38;79.88;98491.13;130304;1275;114696;-66
2023/04/01 05:08:34;;;;;;;5.60;3.50;;;;;;;9.39;80.05;98494.42;130396;1273;114715;-66
2023/04/01 05:11:36;;;;;;;6.90;3.00;;;;;;;9.40;79.97;98494.85;130335;1258;115366;-66
2023/04/01 05:14:39;;;;;;;6.40;4.10;;;;;;;9.41;80.01;98498.17;130337;1254;115087;-67
2023/04/01 05:17:41;;;;;;;6.40;3.40;;;;;;;9.42;80.03;98496.30;130448;1267;114785;-67
2023/04/01 05:20:54;;;;;;;5.20;3.50;;;;;;;9.43;80.07;98497.31;130368;1257;115181;-67
2023/04/01 05:23:56;;;;;;;7.40;3.50;;;;;;;9.44;80.28;98494.23;130229;1270;114707;-66
2023/04/01 05:26:59;;;;;;;8.10;4.20;;;;;;;9.46;80.20;98500.34;130389;1257;114731;-68
2023/04/01 05:30:02;;;;;;;6.50;4.20;;;;;;;9.48;80.21;98495.73;130293;1258;114725;-67
2023/04/01 05:33:04;;;;;;;7.30;4.10;;;;;;;9.51;80.46;98500.35;130340;1257;114809;-66
2023/04/01 05:36:11;;;;;;;7.90;3.70;;;;;;;9.52;80.24;98497.38;130404;1257;114692;-66
2023/04/01 05:39:15;;;;;;;7.50;3.60;;;;;;;9.53;80.05;98492.10;130564;1256;114766;-67
2023/04/01 05:42:17;;;;;;;6.60;3.60;;;;;;;9.53;80.30;98495.66;130563;1258;115199;-67
2023/04/01 05:45:19;;;;;;;5.50;3.40;;;;;;;9.55;80.35;98492.86;130495;1257;114795;-68
2023/04/01 05:48:21;;;;;;;3.70;3.10;;;;;;;9.58;80.39;98495.52;130468;1257;114715;-67
2023/04/01 05:51:24;;;;;;;5.70;3.00;;;;;;;9.61;80.53;98496.59;130318;1267;115214;-67
2023/04/01 05:54:26;;;;;;;5.20;3.60;;;;;;;9.62;80.75;98497.39;130496;1257;114893;-67
2023/04/01 05:57:28;;;;;;;5.20;3.30;;;;;;;9.63;80.48;98499.27;130490;1258;114814;-67
2023/04/01 06:00:30;;;;;;;6.50;3.40;;;;;;;9.64;80.60;98503.05;130490;1268;114696;-67
2023/04/01 06:03:33;;;;;;;3.30;2.70;;;;;;;9.68;80.64;98503.88;130524;1270;114710;-67
2023/04/01 06:06:36;;;;;;;4.80;3.10;;;;;;;9.71;80.81;98506.64;130690;1257;115118;-68
2023/04/01 06:09:38;;;;;;;6.60;3.40;;;;;;;9.75;80.86;98509.92;130714;1254;115189;-67
2023/04/01 06:13:17;;;;;;;4.90;3.40;;;;;;;9.78;80.83;98510.98;130507;1257;114747;-67
2023/04/01 06:16:32;;;;;;;7.40;3.90;;;;;;;9.81;80.91;98517.34;129789;1266;115158;-68
2023/04/01 06:19:40;;;;;;;4.40;3.10;;;;;;;9.81;80.87;98518.02;129750;1264;114917;-66
2023/04/01 06:22:51;;;;;;;7.70;4.10;;;;;;;9.85;80.92;98516.71;129661;1272;128049;-67
2023/04/01 06:26:08;;;;;;;4.60;3.30;;;;;;;9.86;80.83;98522.14;129669;1266;115208;-67
2023/04/01 06:29:48;;;;;;;6.10;3.30;;;;;;;9.84;80.98;98524.42;129598;1267;115191;-66
2023/04/01 06:32:53;;;;;;;5.70;3.30;;;;;;;9.88;81.07;98527.34;129648;1261;114883;-67
2023/04/01 06:35:59;;;;;;;;;;;;;;;9.91;81.19;98530.67;129699;1263;114716;-67
2023/04/01 06:39:23;;;;;;;5.30;3.90;;;;;;;9.92;80.98;98530.61;129667;1264;128650;-67
2023/04/01 06:42:49;;;;;;;6.50;3.70;;;;;;;9.93;80.93;98530.39;129544;1261;115250;-67
2023/04/01 06:46:00;;;;;;;5.70;3.50;;;;;;;9.95;81.01;98532.49;129712;1264;114798;-66
2023/04/01 06:49:21;;;;;;;7.30;4.30;;;;;;;10.00;81.30;98532.30;129707;1261;114906;-66
2023/04/01 06:52:43;;;;;;;6.50;3.30;;;;;;;10.04;81.27;98534.87;129921;1264;114841;-67
2023/04/01 06:55:53;;;;;;;6.30;3.50;;;;;;;10.07;81.28;98535.38;130484;1257;128537;-66
2023/04/01 06:59:01;;;;;;;7.00;4.20;;;;;;;10.10;81.23;98536.71;130548;1255;115250;-66
2023/04/01 07:02:09;;;;;;;7.40;3.80;;;;;;;10.13;81.24;98536.48;130098;1260;114917;-68
2023/04/01 07:05:13;;;;;;;6.60;4.20;;;;;;;10.15;80.97;98535.84;130299;1257;114878;-68
2023/04/01 07:08:22;;;;;;;6.10;4.00;;;;;;;10.18;81.18;98537.37;130221;1267;114634;-68
2023/04/01 07:11:29;;;;;;;6.10;4.40;;;;;;;10.23;81.34;98535.39;130314;1265;128939;-69
2023/04/01 07:14:40;;;;;;;5.90;4.80;;;;;;;10.27;81.27;98537.43;130645;1267;115218;-66
2023/04/01 07:17:43;;;;;;;7.90;4.60;;;;;;;10.31;81.43;98535.14;130545;1254;115176;-67
2023/04/01 07:20:46;;;;;;;6.10;4.50;;;;;;;10.37;81.39;98530.96;130255;1275;115578;-67
2023/04/01 07:23:50;;;;;;;5.90;4.30;;;;;;;10.42;81.38;98530.94;130426;1267;114709;-67
2023/04/01 07:26:55;;;;;;;5.70;4.00;;;;;;;10.47;81.59;98533.42;130569;1257;128733;-67
2023/04/01 07:29:57;;;;;;;5.20;4.10;;;;;;;10.51;81.13;98538.44;130508;1267;114801;-66
2023/04/01 07:33:04;;;;;;;6.30;4.30;;;;;;;10.51;81.08;98536.34;130543;1257;115318;-66
2023/04/01 07:36:42;;;;;;;5.60;4.30;;;;;;;10.51;81.21;98538.66;130200;1275;115278;-65
2023/04/01 07:39:47;;;;;;;4.60;3.90;;;;;;;10.53;81.18;98541.02;130318;1254;114772;-66
2023/04/01 07:42:54;;;;;;;;;;;;;;;10.54;81.17;98542.19;130273;1273;127994;-66
2023/04/01 07:46:33;;;;;;;11.90;5.90;;;;;;;10.55;81.34;98543.20;130128;1266;340386;-68
2023/04/01 07:49:39;;;;;;;5.30;4.20;;;;;;;10.60;81.37;98546.35;130300;1257;114714;-67
2023/04/01 07:53:07;;;;;;;8.40;3.90;;;;;;;10.66;81.36;98545.02;130298;1256;114988;-67
2023/04/01 07:56:26;;;;;;;6.30;4.00;;;;;;;10.70;80.96;98552.00;130013;1261;114963;-67
2023/04/01 08:00:10;;;;;;;7.90;4.30;;;;;;;10.77;80.96;98552.71;130279;1256;127934;-65
2023/04/01 08:03:44;;;;;;;7.80;3.50;;;;;;;10.86;81.16;98556.10;129595;1267;116448;-67
2023/04/01 08:06:56;;;;;;;7.10;3.50;;;;;;;10.97;81.10;98554.91;129648;1260;114810;-67
2023/04/01 08:10:04;;;;;;;4.30;2.90;;;;;;;11.07;81.41;98559.61;129632;1264;114955;-65
2023/04/01 08:13:28;;;;;;;9.90;4.10;;;;;;;11.21;81.52;98560.13;129689;1261;114858;-67
2023/04/01 08:16:47;;;;;;;11.90;5.00;;;;;;;11.35;81.17;98562.02;129633;1282;128748;-65
2023/04/01 08:20:10;;;;;;;9.00;4.60;;;;;;;11.47;81.16;98561.97;129713;1264;115413;-67
2023/04/01 08:23:22;;;;;;;7.40;3.40;;;;;;;11.52;80.68;98562.10;129753;1260;114892;-66
2023/04/01 08:26:46;;;;;;;7.30;3.10;;;;;;;11.53;80.01;98565.02;129755;1262;114925;-66
2023/04/01 08:29:55;;;;;;;7.40;3.40;;;;;;;11.53;79.97;98565.95;129889;1259;114885;-66
2023/04/01 08:33:01;;;;;;;6.10;3.10;;;;;;;11.53;79.99;98572.90;129729;1276;128094;-66
2023/04/01 08:36:09;;;;;;;4.20;3.30;;;;;;;11.61;80.36;98568.56;129834;1263;115195;-66
2023/04/01 08:39:35;;;;;;;5.20;3.00;;;;;;;11.67;80.08;98567.14;130176;1259;115260;-66
2023/04/01 08:42:52;;;;;;;3.90;2.90;;;;;;;11.73;80.53;98574.68;130277;1253;114719;-67
2023/04/01 08:46:19;;;;;;;6.40;2.70;;;;;;;11.83;80.15;98572.29;130309;1253;114859;-66
2023/04/01 08:50:06;;;;;;;6.70;2.80;;;;;;;11.92;79.95;98577.27;130360;1257;128924;-66
2023/04/01 08:53:33;;;;;;;7.30;3.50;;;;;;;11.97;79.60;98571.31;130440;1254;115209;-66
2023/04/01 08:57:17;;;;;;;7.90;3.30;;;;;;;12.05;79.52;98573.73;129984;1254;114810;-65
2023/04/01 09:00:58;;;;;;;4.20;3.10;;;;;;;12.14;79.19;98574.95;130044;1254;114798;-66
2023/04/01 09:04:37;;;;;;;6.60;3.70;;;;;;;12.25;79.78;98577.58;130263;1254;114706;-67
2023/04/01 09:07:44;;;;;;;10.80;4.20;;;;;;;12.41;79.73;98580.20;130180;1257;127563;-69
2023/04/01 09:11:06;;;;;;;7.90;3.40;;;;;;;12.49;79.27;98578.30;130396;1269;115285;-69
2023/04/01 09:14:33;;;;;;;5.40;2.80;;;;;;;12.63;79.34;98577.95;130038;1257;114797;-71
2023/04/01 09:17:38;;;;;;;4.10;2.80;;;;;;;12.84;79.29;98581.40;130472;1258;114919;-67
2023/04/01 09:20:55;;;;;;;7.80;2.90;;;;;;;12.97;78.93;98583.87;130487;1256;114806;-67
2023/04/01 09:24:32;;;;;;;4.40;2.50;;;;;;;13.05;78.39;98590.14;130431;1276;127956;-65
2023/04/01 09:27:43;;;;;;;3.10;2.40;;;;;;;13.12;78.35;98587.91;130283;1259;115263;-65
2023/04/01 09:31:24;;;;;;;5.70;3.80;;;;;;;13.24;78.28;98589.02;130357;1257;114756;-65
2023/04/01 09:35:05;;;;;;;6.80;2.80;;;;;;;13.41;78.23;98590.09;129929;1263;114975;-64
2023/04/01 09:38:31;;;;;;;6.80;2.60;;;;;;;13.52;78.06;98599.67;129199;1278;114783;-66
2023/04/01 09:41:59;;;;;;;5.50;2.50;;;;;;;13.52;77.19;98603.42;129560;1260;127837;-65
2023/04/01 09:45:41;;;;;;;4.90;2.80;;;;;;;13.46;77.09;98612.40;129708;1266;116340;-65
2023/04/01 09:49:13;;;;;;;6.80;3.20;;;;;;;13.31;76.30;98614.21;128848;1269;115036;-65
2023/04/01 09:52:40;;;;;;;3.70;2.20;;;;;;;13.12;76.24;98618.60;128911;1270;114894;-64
2023/04/01 09:55:55;;;;;;;4.10;2.10;;;;;;;12.91;76.10;98623.08;128955;1286;115156;-65
2023/04/01 09:59:35;;;;;;;6.20;3.40;;;;;;;12.70;76.00;98625.05;128843;1273;127717;-63
2023/04/01 10:03:13;;;;;;;6.70;3.70;;;;;;;12.45;76.05;98623.58;128952;1287;115356;-63
2023/04/01 10:06:58;;;;;;;6.90;3.50;;;;;;;12.26;75.94;98629.81;128885;1265;115625;-63
2023/04/01 10:10:30;;;;;;;10.60;4.90;;;;;;;12.05;75.91;98633.16;128948;1269;114921;-64
2023/04/01 10:13:46;;;;;;;9.40;4.00;;;;;;;11.90;76.15;98635.36;129229;1265;115261;-64
2023/04/01 10:16:57;;;;;;;8.30;4.00;;;;;;;11.84;76.64;98640.19;129363;1278;130159;-64
2023/04/01 10:20:03;;;;;;;8.00;4.00;;;;;;;11.76;76.55;98647.32;129273;1260;114671;-64
2023/04/01 10:23:28;;;;;;;12.00;5.20;;;;;;;11.69;77.02;98647.42;129426;1265;115050;-64
2023/04/01 10:26:52;;;;;;;15.10;5.90;;;;;;;11.67;76.77;98645.08;129511;1264;114882;-67
2023/04/01 10:30:16;;;;;;;8.10;3.70;;;;;;;11.63;76.94;98647.59;129740;1260;114888;-65
2023/04/01 10:33:56;;;;;;;8.30;3.60;;;;;;;11.62;77.31;98652.48;129508;1269;129626;-65
2023/04/01 10:37:11;;;;;;;7.00;3.20;;;;;;;11.60;77.06;98658.72;129521;1271;115221;-64
2023/04/01 10:40:45;;;;;;;3.40;2.20;;;;;;;11.54;77.46;98658.48;129829;1270;114759;-64
2023/04/01 10:44:29;;;;;;;6.00;4.00;;;;;;;11.54;77.32;98660.42;129821;1258;114732;-65
2023/04/01 10:48:11;;;;;;;2.60;2.10;;;;;;;11.59;77.74;98663.09;130080;1255;114904;-65
2023/04/01 10:51:22;;;;;;;5.20;3.20;;;;;;;11.61;77.72;98661.31;129864;1260;129042;-65
2023/04/01 10:54:45;;;;;;;2.40;2.20;;;;;;;11.64;77.47;98664.69;129956;1254;114763;-64
2023/04/01 10:58:15;;;;;;;3.30;2.00;;;;;;;11.66;77.92;98670.41;129889;1257;114776;-63
2023/04/01 11:01:39;;;;;;;3.50;1.80;;;;;;;11.68;77.37;98670.96;129726;1260;114763;-63
2023/04/01 11:05:03;;;;;;;2.20;1.80;;;;;;;11.76;78.40;98668.55;129976;1258;114843;-64
2023/04/01 11:08:41;;;;;;;3.00;2.40;;;;;;;11.86;78.16;98664.31;130086;1256;129910;-63
2023/04/01 11:12:14;;;;;;;5.00;3.30;;;;;;;11.95;78.21;98657.48;130232;1256;115323;-63
2023/04/01 11:15:25;;;;;;;4.00;2.60;;;;;;;12.06;78.27;98663.69;129624;1262;114840;-64
2023/04/01 11:18:55;;;;;;;3.00;2.40;;;;;;;12.17;78.14;98666.70;129724;1261;116141;-63
2023/04/01 11:22:21;;;;;;;2.20;2.00;;;;;;;12.31;78.19;98666.45;130109;1267;114827;-64
2023/04/01 11:25:59;;;;;;;3.10;2.00;;;;;;;12.41;77.95;98664.56;129938;1267;128845;-63
2023/04/01 11:29:38;;;;;;;4.60;2.20;;;;;;;12.49;78.03;98661.20;129833;1254;115176;-64
2023/04/01 11:33:07;;;;;;;7.10;3.00;;;;;;;12.59;78.11;98661.92;129698;1262;114847;-62
2023/04/01 11:36:26;;;;;;;4.30;3.40;;;;;;;12.70;77.96;98661.50;129936;1256;114917;-61
2023/04/01 11:39:37;;;;;;;3.20;2.40;;;;;;;12.77;77.84;98660.45;130001;1269;115211;-64
2023/04/01 11:43:07;;;;;;;3.80;2.60;;;;;;;12.86;77.66;98670.21;129976;1254;128725;-63
2023/04/01 11:46:19;;;;;;;5.20;2.30;;;;;;;12.93;77.50;98674.81;129755;1259;116455;-62
2023/04/01 11:49:46;;;;;;;3.80;2.30;;;;;;;12.96;77.27;98679.61;129946;1260;114810;-62
2023/04/01 11:53:14;;;;;;;3.00;2.20;;;;;;;12.96;77.09;98682.28;130010;1256;114703;-64
2023/04/01 11:56:28;;;;;;;2.60;2.20;;;;;;;12.91;77.08;98681.95;130057;1256;114691;-64
2023/04/01 11:59:43;;;;;;;3.50;2.00;;;;;;;12.95;77.06;98683.14;129894;1272;129926;-63
2023/04/01 12:03:19;;;;;;;2.30;1.90;;;;;;;12.98;76.99;98684.08;129932;1255;115183;-65
2023/04/01 12:07:00;;;;;;;3.60;1.40;;;;;;;13.02;77.00;98683.61;129765;1254;114776;-65
2023/04/01 12:10:41;;;;;;;5.70;4.40;;;;;;;13.09;76.94;98686.71;129894;1256;114874;-65
2023/04/01 12:14:00;;;;;;;7.50;6.70;;;;;;;13.18;77.22;98686.00;129946;1256;114715;-64
2023/04/01 12:17:41;;;;;;;8.80;8.00;;;;;;;13.28;77.07;98688.58;129998;1275;128511;-64
2023/04/01 12:20:49;;;;;;;11.30;6.20;;;;;;;13.33;76.70;98694.00;129515;1262;114804;-62
2023/04/01 12:24:03;;;;;;;115.50;61.10;;;;;;;13.41;77.00;98698.14;129402;1264;115081;-62
2023/04/01 12:27:33;;;;;;;24.60;17.30;;;;;;;13.54;77.22;98694.23;129291;1262;114865;-65
2023/04/01 12:30:59;;;;;;;8.80;7.00;;;;;;;13.69;76.97;98693.42;129484;1265;114706;-65
2023/04/01 12:34:21;;;;;;;4.50;4.00;;;;;;;13.87;77.07;98693.27;129344;1281;127422;-62
2023/04/01 12:37:45;;;;;;;2.50;2.20;;;;;;;14.06;76.78;98693.89;129510;1263;115352;-62
2023/04/01 12:41:08;;;;;;;3.60;2.10;;;;;;;14.22;76.75;98692.11;129805;1260;114913;-64
2023/04/01 12:44:23;;;;;;;3.50;2.50;;;;;;;14.35;76.18;98689.33;129458;1259;114920;-63
2023/04/01 12:47:46;;;;;;;3.00;2.70;;;;;;;14.43;75.59;98691.34;129407;1264;116363;-67
2023/04/01 12:51:01;;;;;;;2.50;2.30;;;;;;;14.55;75.75;98691.46;129775;1263;128916;-67
2023/04/01 12:54:32;;;;;;;3.30;2.70;;;;;;;14.77;75.83;98694.84;129747;1262;115262;-67
2023/04/01 12:57:49;;;;;;;3.00;2.30;;;;;;;14.99;75.89;98693.05;129054;1264;114871;-67
2023/04/01 13:01:03;;;;;;;2.90;2.30;;;;;;;15.15;75.49;98695.80;129297;1283;114739;-68
2023/04/01 13:04:36;;;;;;;4.30;2.50;;;;;;;15.30;74.98;98695.48;129363;1271;114826;-67
2023/04/01 13:07:50;;;;;;;3.10;1.90;;;;;;;15.43;74.71;98695.55;128935;1270;128342;-68
2023/04/01 13:11:03;;;;;;;2.70;1.80;;;;;;;15.56;74.57;98694.69;129325;1262;115656;-68
2023/04/01 13:14:14;;;;;;;3.90;2.30;;;;;;;15.65;73.97;98691.98;129213;1267;114828;-67
2023/04/01 13:17:29;;;;;;;2.60;2.00;;;;;;;15.69;73.59;98698.61;129712;1261;115026;-67
2023/04/01 13:20:41;;;;;;;2.50;2.00;;;;;;;15.77;73.54;98704.34;129598;1265;115616;-67
2023/04/01 13:23:56;;;;;;;3.60;2.50;;;;;;;15.81;73.38;98702.30;129353;1284;128863;-67
2023/04/01 13:27:16;;;;;;;2.40;2.20;;;;;;;15.85;72.95;98707.04;129450;1265;116494;-68
2023/04/01 13:30:37;;;;;;;3.50;2.20;;;;;;;15.88;72.96;98706.16;129474;1268;114936;-67
2023/04/01 13:33:50;;;;;;;2.00;1.80;;;;;;;15.96;73.05;98715.52;129736;1265;114964;-66
2023/04/01 13:37:05;;;;;;;1.50;1.30;;;;;;;16.00;72.36;98718.80;130442;1253;114744;-67
2023/04/01 13:40:29;;;;;;;1.90;1.40;;;;;;;15.87;71.51;98721.20;129956;1255;128986;-66
2023/04/01 13:43:44;;;;;;;4.40;2.00;;;;;;;15.79;71.42;98727.95;129861;1262;115247;-66
2023/04/01 13:46:54;;;;;;;3.00;1.70;;;;;;;15.72;71.33;98735.57;129766;1254;114821;-66
2023/04/01 13:50:35;;;;;;;1.80;1.60;;;;;;;15.69;71.19;98738.43;130191;1258;114709;-64
2023/04/01 13:53:44;;;;;;;2.20;1.90;;;;;;;15.69;70.64;98741.84;129997;1256;115580;-64
2023/04/01 13:56:55;;;;;;;2.90;1.90;;;;;;;15.64;70.38;98741.77;130418;1269;129317;-66
2023/04/01 14:00:16;;;;;;;2.90;1.90;;;;;;;15.62;70.20;98743.80;130404;1276;115237;-65
2023/04/01 14:03:24;;;;;;;3.90;1.70;;;;;;;15.57;69.98;98747.27;130109;1256;114908;-66
2023/04/01 14:06:28;;;;;;;4.00;3.10;;;;;;;15.50;70.01;98749.17;130262;1256;114783;-65
2023/04/01 14:09:56;;;;;;;4.40;3.00;;;;;;;15.43;69.84;98749.17;130687;1256;114684;-66
2023/04/01 14:13:37;;;;;;;5.00;2.60;;;;;;;15.32;70.07;98756.86;130066;1270;128769;-65
2023/04/01 14:17:14;;;;;;;3.60;1.80;;;;;;;15.18;69.87;98757.40;129390;1275;115342;-65
2023/04/01 14:20:47;;;;;;;2.90;1.80;;;;;;;15.07;70.25;98758.85;129437;1264;114880;-64
2023/04/01 14:24:04;;;;;;;1.90;1.70;;;;;;;15.04;70.45;98758.35;129076;1268;114822;-64
2023/04/01 14:27:19;;;;;;;1.90;1.70;;;;;;;15.07;70.45;98758.10;129066;1265;114891;-63
2023/04/01 14:30:38;;;;;;;4.90;4.20;;;;;;;15.06;69.89;98763.25;128989;1271;127820;-62
2023/04/01 14:34:21;;;;;;;3.30;2.40;;;;;;;15.02;70.15;98765.00;128857;1279;115209;-65
2023/04/01 14:37:56;;;;;;;4.20;3.30;;;;;;;14.96;70.20;98772.30;129462;1266;115727;-64
2023/04/01 14:41:17;;;;;;;;;;;;;;;14.86;70.00;98776.16;129115;1265;114969;-65
2023/04/01 14:44:49;;;;;;;3.10;2.20;;;;;;;14.67;69.27;98776.84;129191;1268;114836;-64
2023/04/01 14:47:56;;;;;;;4.90;3.00;;;;;;;14.46;69.75;98777.64;129063;1269;128857;-62
2023/04/01 14:51:24;;;;;;;6.80;3.60;;;;;;;14.35;69.93;98785.94;128718;1272;114932;-63
2023/04/01 14:54:33;;;;;;;12.90;7.50;;;;;;;14.20;69.91;98789.80;129143;1266;114875;-62
2023/04/01 14:57:35;;;;;;;7.30;5.10;;;;;;;14.09;70.06;98792.52;129452;1260;117628;-63